createdAt,value
2022-11-12T00:00:41.322Z,40.10
2022-11-12T00:03:28.741Z,40.10
2022-11-12T00:05:57.392Z,40.10
2022-11-12T00:08:25.668Z,40.10
2022-11-12T00:10:55.313Z,40.10
2022-11-12T00:13:26.623Z,40.10
2022-11-12T00:15:54.959Z,40.10
2022-11-12T00:18:24.762Z,40.10
2022-11-12T00:20:59.339Z,40.20
2022-11-12T00:23:27.090Z,40.10
2022-11-12T00:26:04.596Z,40.20
2022-11-12T00:28:37.717Z,40.10
2022-11-12T00:31:12.776Z,40.20
2022-11-12T00:33:44.086Z,40.20
2022-11-12T00:36:12.157Z,40.20
2022-11-12T00:38:39.840Z,40.10
2022-11-12T00:41:07.007Z,40.10
2022-11-12T00:43:37.427Z,40.20
2022-11-12T00:46:06.005Z,40.10
2022-11-12T00:48:33.737Z,40.10
2022-11-12T00:51:05.328Z,40.10
2022-11-12T00:53:36.404Z,40.20
2022-11-12T00:56:07.989Z,40.20
2022-11-12T00:58:38.458Z,40.20
2022-11-12T01:01:13.646Z,40.10
2022-11-12T01:03:43.422Z,40.10
2022-11-12T01:06:14.820Z,40.10
2022-11-12T01:08:44.618Z,40.20
2022-11-12T01:11:24.400Z,40.20
2022-11-12T01:14:04.176Z,40.10
2022-11-12T01:16:38.900Z,40.10
2022-11-12T01:19:13.468Z,40.10
2022-11-12T01:21:45.421Z,40.10
2022-11-12T01:24:17.634Z,40.10
2022-11-12T01:26:48.914Z,40.10
2022-11-12T01:29:20.700Z,40.10
2022-11-12T01:31:48.769Z,40.10
2022-11-12T01:34:16.749Z,40.10
2022-11-12T01:36:47.449Z,40.10
2022-11-12T01:39:19.659Z,40.10
2022-11-12T01:41:47.917Z,40.10
2022-11-12T01:44:27.134Z,40.10
2022-11-12T01:47:14.694Z,40.10
2022-11-12T01:49:57.291Z,40.20
2022-11-12T01:52:50.448Z,40.10
2022-11-12T01:55:23.755Z,40.10
2022-11-12T01:58:04.830Z,40.10
2022-11-12T02:00:32.478Z,40.10
2022-11-12T02:03:03.323Z,40.10
2022-11-12T02:05:33.964Z,40.10
2022-11-12T02:08:04.508Z,40.10
2022-11-12T02:10:32.792Z,40.10
2022-11-12T02:13:20.266Z,40.10
2022-11-12T02:15:49.335Z,40.10
2022-11-12T02:18:18.772Z,40.10
2022-11-12T02:20:53.949Z,40.10
2022-11-12T02:23:22.384Z,40.10
2022-11-12T02:25:51.154Z,40.20
2022-11-12T02:28:19.926Z,40.10
2022-11-12T02:30:52.093Z,40.10
2022-11-12T02:33:22.208Z,40.10
2022-11-12T02:35:52.208Z,40.10
2022-11-12T02:38:18.656Z,40.10
2022-11-12T02:40:49.325Z,40.10
2022-11-12T02:43:20.945Z,40.10
2022-11-12T02:45:52.271Z,40.10
2022-11-12T02:48:23.763Z,40.10
2022-11-12T02:50:55.508Z,40.10
2022-11-12T02:53:33.612Z,40.10
2022-11-12T02:56:04.823Z,40.10
2022-11-12T02:58:35.524Z,40.10
2022-11-12T03:01:05.837Z,40.10
2022-11-12T03:03:33.624Z,40.10
2022-11-12T03:06:03.793Z,40.20
2022-11-12T03:08:34.911Z,40.20
2022-11-12T03:11:12.537Z,40.10
2022-11-12T03:13:40.350Z,40.10
2022-11-12T03:16:10.697Z,40.20
2022-11-12T03:18:40.196Z,40.20
2022-11-12T03:21:11.110Z,40.20
2022-11-12T03:23:40.829Z,40.20
2022-11-12T03:26:09.569Z,40.20
2022-11-12T03:28:38.257Z,40.20
2022-11-12T03:31:11.005Z,40.20
2022-11-12T03:33:40.082Z,40.20
2022-11-12T03:36:08.664Z,40.10
2022-11-12T03:38:36.277Z,40.10
2022-11-12T03:41:03.944Z,40.80
2022-11-12T03:43:32.326Z,40.10
2022-11-12T03:45:59.456Z,40.10
2022-11-12T03:48:28.586Z,40.10
2022-11-12T03:51:01.305Z,40.20
2022-11-12T03:53:31.445Z,40.20
2022-11-12T03:56:00.353Z,40.20
2022-11-12T03:58:28.858Z,40.20
2022-11-12T04:01:00.699Z,40.10
2022-11-12T04:03:29.387Z,40.20
2022-11-12T04:06:17.044Z,40.20
2022-11-12T04:08:44.735Z,40.20
2022-11-12T04:11:19.508Z,40.20
2022-11-12T04:13:50.836Z,40.20
2022-11-12T04:16:40.103Z,40.90
2022-11-12T04:19:30.872Z,40.20
2022-11-12T04:22:12.075Z,40.30
2022-11-12T04:25:01.642Z,40.20
2022-11-12T04:27:39.668Z,40.20
2022-11-12T04:30:17.351Z,40.30
2022-11-12T04:32:49.957Z,40.30
2022-11-12T04:35:21.114Z,40.30
2022-11-12T04:37:49.894Z,40.20
2022-11-12T04:40:44.901Z,40.20
2022-11-12T04:43:36.192Z,40.20
2022-11-12T04:46:05.702Z,40.30
2022-11-12T04:48:35.420Z,40.20
2022-11-12T04:51:26.297Z,40.20
2022-11-12T04:53:55.825Z,40.20
2022-11-12T04:56:26.960Z,40.30
2022-11-12T04:58:55.935Z,40.20
2022-11-12T05:01:25.224Z,40.20
2022-11-12T05:03:54.727Z,40.20
2022-11-12T05:06:41.149Z,40.30
2022-11-12T05:09:11.496Z,40.20
2022-11-12T05:11:41.084Z,40.20
2022-11-12T05:14:11.059Z,40.20
2022-11-12T05:16:40.851Z,40.20
2022-11-12T05:19:11.068Z,40.20
2022-11-12T05:21:57.856Z,40.20
2022-11-12T05:24:41.565Z,40.20
2022-11-12T05:27:16.659Z,40.20
2022-11-12T05:29:47.575Z,40.20
2022-11-12T05:32:18.878Z,40.20
2022-11-12T05:34:46.180Z,40.20
2022-11-12T05:37:15.059Z,40.20
2022-11-12T05:39:45.984Z,40.20
2022-11-12T05:42:14.326Z,40.20
2022-11-12T05:44:42.715Z,40.20
2022-11-12T05:47:13.325Z,40.20
2022-11-12T05:49:41.283Z,40.20
2022-11-12T05:52:08.739Z,40.30
2022-11-12T05:54:36.821Z,40.30
2022-11-12T05:57:07.234Z,40.30
2022-11-12T05:59:36.014Z,40.30
2022-11-12T06:02:04.613Z,40.30
2022-11-12T06:04:34.320Z,40.30
2022-11-12T06:07:08.803Z,40.20
2022-11-12T06:09:38.164Z,40.30
2022-11-12T06:12:09.168Z,40.20
2022-11-12T06:14:38.740Z,40.20
2022-11-12T06:17:09.045Z,40.30
2022-11-12T06:19:38.344Z,40.30
2022-11-12T06:22:08.533Z,40.20
2022-11-12T06:24:37.331Z,40.30
2022-11-12T06:27:07.606Z,40.30
2022-11-12T06:29:35.748Z,40.30
2022-11-12T06:32:03.491Z,40.30
2022-11-12T06:34:30.826Z,40.30
2022-11-12T06:36:59.217Z,40.30
2022-11-12T06:39:27.391Z,40.20
2022-11-12T06:41:55.201Z,40.20
2022-11-12T06:44:23.489Z,40.20
2022-11-12T06:46:52.054Z,40.30
2022-11-12T06:49:21.369Z,40.20
2022-11-12T06:51:52.961Z,40.20
2022-11-12T06:54:24.357Z,40.30
2022-11-12T06:56:55.434Z,40.30
2022-11-12T06:59:24.826Z,40.30
2022-11-12T07:01:54.076Z,40.30
2022-11-12T07:04:25.578Z,40.20
2022-11-12T07:06:54.846Z,40.20
2022-11-12T07:09:22.496Z,40.20
2022-11-12T07:11:50.564Z,40.30
2022-11-12T07:14:21.462Z,40.20
2022-11-12T07:16:49.299Z,40.30
2022-11-12T07:19:20.452Z,40.30
2022-11-12T07:21:48.533Z,40.30
2022-11-12T07:24:17.038Z,40.30
2022-11-12T07:26:47.613Z,40.30
2022-11-12T07:29:30.131Z,40.30
2022-11-12T07:32:02.837Z,40.30
2022-11-12T07:34:31.985Z,40.30
2022-11-12T07:37:00.738Z,40.30
2022-11-12T07:39:29.521Z,40.30
2022-11-12T07:41:59.026Z,40.30
2022-11-12T07:44:26.204Z,40.30
2022-11-12T07:46:56.479Z,40.30
2022-11-12T07:49:26.225Z,40.30
2022-11-12T07:51:57.283Z,40.30
2022-11-12T07:54:25.080Z,40.30
2022-11-12T07:56:52.565Z,40.30
2022-11-12T07:59:23.632Z,40.30
2022-11-12T08:01:51.254Z,40.30
2022-11-12T08:04:21.636Z,40.30
2022-11-12T08:06:50.963Z,40.30
2022-11-12T08:09:19.741Z,40.30
2022-11-12T08:11:48.705Z,40.30
2022-11-12T08:14:19.111Z,40.30
2022-11-12T08:16:47.399Z,40.30
2022-11-12T08:19:17.010Z,40.30
2022-11-12T08:21:45.947Z,40.30
2022-11-12T08:24:15.849Z,40.40
2022-11-12T08:26:45.826Z,40.30
2022-11-12T08:29:13.821Z,40.40
2022-11-12T08:31:44.673Z,40.40
2022-11-12T08:34:21.391Z,40.40
2022-11-12T08:36:50.520Z,40.30
2022-11-12T08:39:20.729Z,40.40
2022-11-12T08:41:50.753Z,40.40
2022-11-12T08:44:20.130Z,41.10
2022-11-12T08:46:48.355Z,40.30
2022-11-12T08:49:19.450Z,40.40
2022-11-12T08:51:50.265Z,40.40
2022-11-12T08:54:19.040Z,40.30
2022-11-12T08:56:47.311Z,40.30
2022-11-12T08:59:16.327Z,40.30
2022-11-12T09:01:43.928Z,40.30
2022-11-12T09:04:12.247Z,40.30
2022-11-12T09:06:42.162Z,40.30
2022-11-12T09:09:12.037Z,40.30
2022-11-12T09:11:40.011Z,40.30
2022-11-12T09:14:08.581Z,40.30
2022-11-12T09:16:38.496Z,40.30
2022-11-12T09:19:06.529Z,40.30
2022-11-12T09:21:37.778Z,40.40
2022-11-12T09:24:06.002Z,40.30
2022-11-12T09:26:35.035Z,40.30
2022-11-12T09:29:05.965Z,40.30
2022-11-12T09:31:33.994Z,40.30
2022-11-12T09:34:01.610Z,40.30
2022-11-12T09:36:34.586Z,40.30
2022-11-12T09:39:04.756Z,40.30
2022-11-12T09:41:44.173Z,40.30
2022-11-12T09:44:22.880Z,40.30
2022-11-12T09:47:09.609Z,40.30
2022-11-12T09:49:52.838Z,40.40
2022-11-12T09:52:26.395Z,40.40
2022-11-12T09:55:14.585Z,40.40
2022-11-12T09:57:43.277Z,40.40
2022-11-12T10:00:29.672Z,40.40
2022-11-12T10:03:15.586Z,40.30
2022-11-12T10:05:58.561Z,40.40
2022-11-12T10:08:47.983Z,40.40
2022-11-12T10:11:52.385Z,40.40
2022-11-12T10:14:26.305Z,40.40
2022-11-12T10:17:12.158Z,40.40
2022-11-12T10:19:56.255Z,40.40
2022-11-12T10:22:52.722Z,40.40
2022-11-12T10:25:23.237Z,40.50
2022-11-12T10:27:50.823Z,40.50
2022-11-12T10:30:22.104Z,40.50
2022-11-12T10:32:53.713Z,40.50
2022-11-12T10:35:23.969Z,40.50
2022-11-12T10:37:59.725Z,40.50
2022-11-12T10:40:41.364Z,40.50
2022-11-12T10:43:18.381Z,40.50
2022-11-12T10:45:49.146Z,40.40
2022-11-12T10:48:33.306Z,40.50
2022-11-12T10:51:03.721Z,40.50
2022-11-12T10:53:35.360Z,40.40
2022-11-12T10:56:06.430Z,40.40
2022-11-12T10:58:35.539Z,40.40
2022-11-12T11:01:09.748Z,40.50
2022-11-12T11:03:51.996Z,40.90
2022-11-12T11:06:26.115Z,40.50
2022-11-12T11:09:10.890Z,40.50
2022-11-12T11:11:39.081Z,40.40
2022-11-12T11:14:39.286Z,40.50
2022-11-12T11:17:17.305Z,40.50
2022-11-12T11:19:45.169Z,40.50
2022-11-12T11:22:27.886Z,40.50
2022-11-12T11:25:27.107Z,40.50
2022-11-12T11:27:57.673Z,40.50
2022-11-12T11:30:27.764Z,40.50
2022-11-12T11:33:29.953Z,40.60
2022-11-12T11:36:00.637Z,40.60
2022-11-12T11:38:35.022Z,40.60
2022-11-12T11:41:32.472Z,40.60
2022-11-12T11:44:43.524Z,40.60
2022-11-12T11:48:00.519Z,40.50
2022-11-12T11:50:39.324Z,40.60
2022-11-12T11:53:38.657Z,40.60
2022-11-12T11:56:27.464Z,40.60
2022-11-12T11:59:07.603Z,40.60
2022-11-12T12:01:44.421Z,40.60
2022-11-12T12:04:28.735Z,40.60
2022-11-12T12:06:57.868Z,40.60
2022-11-12T12:09:38.889Z,40.60
2022-11-12T12:12:37.317Z,40.60
2022-11-12T12:15:36.615Z,40.60
2022-11-12T12:18:26.275Z,40.60
2022-11-12T12:21:07.495Z,40.60
2022-11-12T12:23:59.384Z,40.60
2022-11-12T12:26:31.473Z,40.60
2022-11-12T12:29:22.908Z,40.60
2022-11-12T12:32:04.738Z,40.60
2022-11-12T12:34:49.176Z,40.60
2022-11-12T12:37:42.183Z,40.60
2022-11-12T12:40:35.484Z,40.60
2022-11-12T12:43:17.737Z,40.60
2022-11-12T12:45:48.086Z,40.60
2022-11-12T12:48:32.697Z,40.60
2022-11-12T12:51:08.314Z,40.60
2022-11-12T12:53:37.653Z,40.60
2022-11-12T12:56:30.815Z,40.70
2022-11-12T12:59:04.769Z,40.60
2022-11-12T13:01:39.334Z,40.70
2022-11-12T13:04:09.628Z,40.70
2022-11-12T13:06:57.107Z,40.60
2022-11-12T13:09:29.918Z,40.60
2022-11-12T13:12:06.675Z,40.60
2022-11-12T13:14:40.113Z,40.60
2022-11-12T13:17:10.232Z,40.60
2022-11-12T13:19:46.493Z,40.60
2022-11-12T13:22:21.071Z,40.60
2022-11-12T13:25:14.070Z,40.60
2022-11-12T13:27:44.971Z,40.50
2022-11-12T13:30:22.082Z,40.60
2022-11-12T13:32:50.189Z,40.50
2022-11-12T13:35:21.380Z,40.50
2022-11-12T13:38:22.826Z,40.50
2022-11-12T13:41:39.914Z,40.50
2022-11-12T13:44:17.297Z,40.50
2022-11-12T13:46:50.618Z,40.60
2022-11-12T13:49:19.619Z,40.60
2022-11-12T13:51:53.214Z,40.60
2022-11-12T13:54:40.464Z,40.60
2022-11-12T13:57:20.841Z,40.60
2022-11-12T13:59:48.745Z,40.60
2022-11-12T14:02:27.889Z,40.50
2022-11-12T14:04:56.645Z,40.60
2022-11-12T14:07:42.420Z,40.60
2022-11-12T14:10:30.299Z,40.60
2022-11-12T14:13:18.687Z,40.60
2022-11-12T14:16:16.620Z,40.60
2022-11-12T14:19:01.834Z,40.60
2022-11-12T14:21:31.304Z,40.60
2022-11-12T14:24:02.593Z,40.60
2022-11-12T14:26:37.666Z,40.60
2022-11-12T14:29:06.170Z,40.60
2022-11-12T14:31:35.125Z,40.60
2022-11-12T14:34:34.993Z,40.70
2022-11-12T14:37:05.335Z,40.60
2022-11-12T14:39:33.253Z,40.60
2022-11-12T14:42:01.687Z,40.60
2022-11-12T14:44:39.299Z,40.60
2022-11-12T14:47:07.930Z,40.60
2022-11-12T14:49:44.824Z,40.60
2022-11-12T14:52:21.322Z,40.60
2022-11-12T14:54:54.941Z,40.60
2022-11-12T14:57:32.153Z,40.60
2022-11-12T15:00:00.687Z,40.70
2022-11-12T15:02:58.888Z,40.70
2022-11-12T15:05:24.047Z,40.60
2022-11-12T15:08:02.783Z,40.70
2022-11-12T15:10:35.173Z,40.70
2022-11-12T15:13:11.297Z,40.60
2022-11-12T15:15:59.267Z,40.70
2022-11-12T15:18:30.331Z,40.70
2022-11-12T15:21:33.524Z,40.70
2022-11-12T15:24:36.478Z,40.70
2022-11-12T15:27:38.752Z,40.70
2022-11-12T15:30:27.966Z,40.60
2022-11-12T15:33:12.578Z,40.70
2022-11-12T15:35:45.721Z,40.60
2022-11-12T15:38:39.178Z,40.60
2022-11-12T15:41:23.390Z,40.60
2022-11-12T15:43:52.705Z,40.60
2022-11-12T15:46:21.300Z,40.60
2022-11-12T15:48:55.501Z,40.70
2022-11-12T15:51:26.394Z,40.70
2022-11-12T15:53:55.923Z,40.70
2022-11-12T15:56:24.068Z,40.60
2022-11-12T15:58:55.829Z,40.60
2022-11-12T16:01:26.509Z,40.60
2022-11-12T16:03:55.479Z,40.60
2022-11-12T16:06:25.613Z,40.70
2022-11-12T16:08:54.995Z,40.60
2022-11-12T16:11:36.551Z,40.70
2022-11-12T16:14:13.189Z,40.70
2022-11-12T16:16:44.273Z,40.70
2022-11-12T16:19:15.217Z,40.70
2022-11-12T16:21:46.643Z,40.60
2022-11-12T16:24:16.929Z,40.70
2022-11-12T16:26:46.721Z,40.70
2022-11-12T16:29:15.315Z,40.70
2022-11-12T16:31:46.435Z,40.70
2022-11-12T16:34:29.237Z,40.70
2022-11-12T16:36:59.250Z,40.70
2022-11-12T16:39:28.684Z,40.80
2022-11-12T16:41:59.019Z,40.80
2022-11-12T16:44:29.792Z,40.70
2022-11-12T16:47:02.984Z,40.70
2022-11-12T16:49:38.455Z,40.70
2022-11-12T16:52:10.740Z,40.70
2022-11-12T16:54:38.835Z,40.70
2022-11-12T16:57:10.500Z,40.70
2022-11-12T16:59:38.807Z,40.70
2022-11-12T17:02:16.347Z,40.70
2022-11-12T17:04:45.166Z,40.70
2022-11-12T17:07:18.487Z,40.70
2022-11-12T17:09:47.623Z,40.70
2022-11-12T17:12:18.923Z,40.70
2022-11-12T17:14:50.200Z,40.70
2022-11-12T17:17:18.912Z,40.70
2022-11-12T17:19:46.006Z,40.70
2022-11-12T17:22:23.002Z,40.70
2022-11-12T17:24:50.394Z,40.80
2022-11-12T17:27:20.604Z,40.70
2022-11-12T17:29:48.055Z,40.80
2022-11-12T17:32:15.851Z,40.70
2022-11-12T17:34:44.236Z,40.70
2022-11-12T17:37:11.695Z,40.70
2022-11-12T17:39:42.015Z,40.70
2022-11-12T17:42:10.912Z,41.40
2022-11-12T17:44:39.554Z,40.80
2022-11-12T17:47:08.379Z,40.70
2022-11-12T17:49:38.073Z,40.70
2022-11-12T17:52:06.576Z,40.70
2022-11-12T17:54:36.881Z,40.70
2022-11-12T17:57:05.768Z,40.70
2022-11-12T17:59:33.151Z,40.80
2022-11-12T18:02:03.827Z,40.80
2022-11-12T18:04:32.468Z,41.00
2022-11-12T18:06:59.814Z,40.80
2022-11-12T18:09:29.992Z,40.70
2022-11-12T18:11:59.276Z,40.70
2022-11-12T18:14:27.025Z,40.80
2022-11-12T18:16:56.540Z,40.90
2022-11-12T18:19:25.480Z,40.70
2022-11-12T18:21:57.813Z,40.80
2022-11-12T18:24:25.329Z,40.70
2022-11-12T18:26:55.423Z,40.70
2022-11-12T18:29:25.002Z,40.80
2022-11-12T18:31:53.712Z,40.80
2022-11-12T18:34:23.214Z,40.70
2022-11-12T18:36:51.301Z,40.80
2022-11-12T18:39:18.834Z,40.80
2022-11-12T18:41:45.983Z,40.80
2022-11-12T18:44:14.388Z,40.80
2022-11-12T18:46:41.178Z,40.80
2022-11-12T18:49:09.142Z,40.80
2022-11-12T18:51:39.811Z,40.70
2022-11-12T18:54:10.964Z,40.80
2022-11-12T18:56:40.726Z,40.70
2022-11-12T18:59:12.627Z,40.80
2022-11-12T19:01:41.052Z,40.80
2022-11-12T19:04:13.640Z,40.70
2022-11-12T19:06:43.339Z,40.80
2022-11-12T19:09:12.961Z,40.70
2022-11-12T19:11:42.905Z,40.80
2022-11-12T19:14:10.638Z,40.70
2022-11-12T19:16:46.618Z,40.70
2022-11-12T19:19:15.790Z,40.70
2022-11-12T19:21:49.265Z,40.70
2022-11-12T19:24:17.942Z,40.70
2022-11-12T19:26:48.140Z,40.70
2022-11-12T19:29:19.719Z,40.80
2022-11-12T19:31:51.360Z,40.70
2022-11-12T19:34:22.434Z,40.70
2022-11-12T19:37:11.984Z,40.70
2022-11-12T19:39:40.588Z,40.80
2022-11-12T19:42:11.334Z,40.80
2022-11-12T19:44:39.514Z,40.80
2022-11-12T19:47:08.101Z,40.80
2022-11-12T19:49:39.630Z,40.70
2022-11-12T19:52:10.771Z,40.70
2022-11-12T19:54:39.346Z,40.80
2022-11-12T19:57:07.194Z,40.70
2022-11-12T19:59:34.533Z,40.70
2022-11-12T20:02:00.616Z,40.80
2022-11-12T20:04:29.228Z,40.70
2022-11-12T20:06:57.685Z,40.70
2022-11-12T20:09:29.204Z,40.70
2022-11-12T20:12:00.353Z,40.70
2022-11-12T20:14:31.743Z,40.70
2022-11-12T20:16:59.210Z,40.70
2022-11-12T20:19:30.280Z,40.70
2022-11-12T20:22:01.811Z,40.80
2022-11-12T20:24:30.950Z,40.70
2022-11-12T20:26:58.377Z,40.70
2022-11-12T20:29:27.385Z,40.80
2022-11-12T20:31:55.273Z,40.90
2022-11-12T20:34:23.986Z,40.80
2022-11-12T20:36:53.355Z,40.70
2022-11-12T20:39:23.348Z,40.70
2022-11-12T20:41:52.613Z,40.70
2022-11-12T20:44:27.823Z,40.70
2022-11-12T20:46:55.992Z,40.70
2022-11-12T20:49:24.921Z,40.70
2022-11-12T20:51:54.734Z,40.70
2022-11-12T20:54:23.136Z,40.70
2022-11-12T20:56:54.879Z,40.70
2022-11-12T20:59:23.565Z,40.70
2022-11-12T21:01:52.127Z,40.70
2022-11-12T21:04:20.502Z,40.70
2022-11-12T21:06:48.856Z,40.70
2022-11-12T21:09:16.819Z,40.70
2022-11-12T21:11:44.677Z,40.60
2022-11-12T21:14:13.146Z,40.70
2022-11-12T21:16:40.433Z,40.60
2022-11-12T21:19:11.343Z,41.40
2022-11-12T21:21:42.329Z,40.70
2022-11-12T21:24:14.473Z,40.60
2022-11-12T21:26:45.880Z,40.60
2022-11-12T21:29:19.037Z,40.70
2022-11-12T21:31:49.329Z,40.60
2022-11-12T21:34:20.516Z,40.60
2022-11-12T21:36:51.217Z,40.60
2022-11-12T21:39:21.128Z,40.70
2022-11-12T21:41:48.270Z,40.70
2022-11-12T21:44:18.192Z,40.60
2022-11-12T21:46:46.787Z,40.60
2022-11-12T21:49:15.005Z,40.70
2022-11-12T21:51:44.185Z,40.70
2022-11-12T21:54:15.950Z,40.60
2022-11-12T21:56:45.881Z,41.30
2022-11-12T21:59:14.727Z,40.60
2022-11-12T22:01:45.695Z,40.60
2022-11-12T22:04:18.270Z,40.70
2022-11-12T22:06:47.855Z,40.60
2022-11-12T22:09:16.656Z,40.60
2022-11-12T22:11:44.267Z,40.70
2022-11-12T22:14:14.805Z,40.70
2022-11-12T22:16:43.406Z,40.60
2022-11-12T22:19:17.825Z,40.60
2022-11-12T22:21:47.399Z,40.60
2022-11-12T22:24:17.086Z,40.70
2022-11-12T22:26:44.967Z,40.60
2022-11-12T22:29:15.906Z,40.70
2022-11-12T22:31:44.128Z,40.60
2022-11-12T22:34:12.597Z,40.70
2022-11-12T22:36:42.377Z,40.70
2022-11-12T22:39:10.188Z,40.70
2022-11-12T22:41:39.276Z,40.70
2022-11-12T22:44:06.917Z,40.60
2022-11-12T22:46:39.591Z,40.60
2022-11-12T22:49:07.832Z,40.60
2022-11-12T22:51:38.329Z,40.60
2022-11-12T22:54:10.213Z,40.60
2022-11-12T22:56:39.930Z,40.60
2022-11-12T22:59:12.582Z,40.60
2022-11-12T23:01:41.468Z,40.60
2022-11-12T23:04:10.300Z,40.60
2022-11-12T23:06:39.110Z,40.60
2022-11-12T23:09:09.008Z,40.60
2022-11-12T23:11:38.695Z,40.60
2022-11-12T23:14:06.658Z,40.60
2022-11-12T23:16:37.284Z,40.60
2022-11-12T23:19:09.472Z,40.60
2022-11-12T23:21:40.651Z,40.60
2022-11-12T23:24:09.785Z,40.70
2022-11-12T23:26:40.306Z,40.60
2022-11-12T23:29:08.390Z,40.60
2022-11-12T23:31:36.307Z,40.60
2022-11-12T23:34:04.529Z,40.60
2022-11-12T23:36:34.637Z,40.60
2022-11-12T23:39:06.757Z,40.60
2022-11-12T23:41:36.990Z,40.60
2022-11-12T23:44:05.802Z,40.60
2022-11-12T23:46:32.620Z,40.60
2022-11-12T23:49:00.098Z,40.60
2022-11-12T23:51:29.164Z,40.60
2022-11-12T23:53:58.238Z,40.60
2022-11-12T23:56:27.396Z,40.60
2022-11-12T23:58:56.589Z,40.60
